地図

経路データ

SID SEASON NUMBER BASIN SUBBASIN NAME ISO_TIME NATURE LAT LON WMO_WIND WMO_PRES WMO_AGENCY TRACK_TYPE DIST2LAND LANDFALL IFLAG USA_AGENCY USA_ATCF_ID USA_LAT USA_LON USA_RECORD USA_STATUS USA_WIND USA_PRES USA_SSHS USA_R34_NE USA_R34_SE USA_R34_SW USA_R34_NW USA_R50_NE USA_R50_SE USA_R50_SW USA_R50_NW USA_R64_NE USA_R64_SE USA_R64_SW USA_R64_NW USA_POCI USA_ROCI USA_RMW USA_EYE TOKYO_LAT TOKYO_LON TOKYO_GRADE TOKYO_WIND TOKYO_PRES TOKYO_R50_DIR TOKYO_R50_LONG TOKYO_R50_SHORT TOKYO_R30_DIR TOKYO_R30_LONG TOKYO_R30_SHORT TOKYO_LAND CMA_LAT CMA_LON CMA_CAT CMA_WIND CMA_PRES HKO_LAT HKO_LON HKO_CAT HKO_WIND HKO_PRES NEWDELHI_LAT NEWDELHI_LON NEWDELHI_GRADE NEWDELHI_WIND NEWDELHI_PRES NEWDELHI_CI NEWDELHI_DP NEWDELHI_POCI REUNION_LAT REUNION_LON REUNION_TYPE REUNION_WIND REUNION_PRES REUNION_TNUM REUNION_CI REUNION_RMW REUNION_R34_NE REUNION_R34_SE REUNION_R34_SW REUNION_R34_NW REUNION_R50_NE REUNION_R50_SE REUNION_R50_SW REUNION_R50_NW REUNION_R64_NE REUNION_R64_SE REUNION_R64_SW REUNION_R64_NW BOM_LAT BOM_LON BOM_TYPE BOM_WIND BOM_PRES BOM_TNUM BOM_CI BOM_RMW BOM_R34_NE BOM_R34_SE BOM_R34_SW BOM_R34_NW BOM_R50_NE BOM_R50_SE BOM_R50_SW BOM_R50_NW BOM_R64_NE BOM_R64_SE BOM_R64_SW BOM_R64_NW BOM_ROCI BOM_POCI BOM_EYE BOM_POS_METHOD BOM_PRES_METHOD NADI_LAT NADI_LON NADI_CAT NADI_WIND NADI_PRES WELLINGTON_LAT WELLINGTON_LON WELLINGTON_WIND WELLINGTON_PRES DS824_LAT DS824_LON DS824_STAGE DS824_WIND DS824_PRES TD9636_LAT TD9636_LON TD9636_STAGE TD9636_WIND TD9636_PRES TD9635_LAT TD9635_LON TD9635_WIND TD9635_PRES TD9635_ROCI NEUMANN_LAT NEUMANN_LON NEUMANN_CLASS NEUMANN_WIND NEUMANN_PRES MLC_LAT MLC_LON MLC_CLASS MLC_WIND MLC_PRES USA_GUST BOM_GUST BOM_GUST_PER REUNION_GUST REUNION_GUST_PER USA_SEAHGT USA_SEARAD_NE USA_SEARAD_SE USA_SEARAD_SW USA_SEARAD_NW STORM_SPEED STORM_DIR
1985017S15146 1985 11 SP EA ODETTE 1985-01-16 12:00:00 NR -14.7500 145.800 25 1002 bom main 63 58 ______O___O___ -1 -14.6000 145.600 20 25 1002 2.00000 -14.9000 146.000 1 25 45 45 3 73
1985017S15146 1985 11 SP EA ODETTE 1985-01-16 15:00:00 NR -14.7037 145.959 main 82 82 ______P___P___ -1 -14.6149 145.730 20 25 1002 -14.7925 146.188 1 27 4 78
1985017S15146 1985 11 SP EA ODETTE 1985-01-16 18:00:00 TS -14.6618 146.236 25 1002 bom main 102 102 O_____O___P_O_ jtwc_sh SH141985 -14.7000 146.300 XX 25 -5 -14.6000 146.000 20 25 1002 2.00000 -14.6981 146.431 1 30 -14.7000 146.300 TC 25 45 45 8 84
1985017S15146 1985 11 SP EA ODETTE 1985-01-16 21:00:00 TS -14.6242 146.744 main 157 157 P_____P___P_P_ SH141985 -14.7003 146.940 XX 30 -5 -14.5424 146.510 20 27 1002 -14.6298 146.783 1 32 -14.7003 146.940 TC 30 12 88
1985017S15146 1985 11 SP EA ODETTE 1985-01-17 00:00:00 TS -14.6200 147.480 30 1003 bom main 238 238 O_____O_O_O_O_ jtwc_sh SH141985 -14.7000 147.600 XX 35 -5 -14.5000 147.200 20 30 1003 2.50000 -14.7000 148.600 30 997 -14.6000 147.300 2 35 -14.7000 147.600 TC 35 45 45 14 91
1985017S15146 1985 11 SP EA ODETTE 1985-01-17 03:00:00 TS -14.6475 148.240 main 310 310 P_____P_P_P_P_ SH141985 -14.6999 148.293 XX 40 -5 -14.5349 147.962 20 35 1000 -14.7269 149.037 33 994 -14.6158 148.013 2 35 -14.6999 148.293 TC 40 15 92
1985017S15146 1985 11 SP EA ODETTE 1985-01-17 06:00:00 TS -14.6799 149.006 40 998 bom main 392 392 O_____O_P_P_O_ jtwc_sh SH141985 -14.7000 149.000 XX 45 -5 -14.6000 148.800 30 40 998 3.00000 -14.7527 149.490 37 992 -14.6650 148.860 2 35 -14.7000 149.000 TC 45 55 55 15 92
1985017S15146 1985 11 SP EA ODETTE 1985-01-17 09:00:00 TS -14.7117 149.759 main 450 447 P_____P_P_P_P_ SH141985 -14.6998 149.700 XX 50 -5 -14.6501 149.673 30 45 994 -14.7773 149.972 41 989 -14.7314 149.751 2 35 -14.6998 149.700 TC 50 14 92
1985017S15146 1985 11 SP EA ODETTE 1985-01-17 12:00:00 TS -14.7400 150.480 50 990 bom main 448 448 O_____O_O_O_O_ jtwc_sh SH141985 -14.7000 150.400 XX 55 -5 -14.7000 150.500 30 50 990 3.50000 -14.8000 150.500 45 987 -14.8000 150.600 2 35 -14.7000 150.400 TC 55 69 69 14 92
1985017S15146 1985 11 SP EA ODETTE 1985-01-17 15:00:00 TS -14.7487 151.153 main 456 456 P_____P_P_P_P_ SH141985 -14.6773 151.100 XX 60 -5 -14.7421 151.188 30 57 987 -14.8225 151.082 48 984 -14.8245 151.295 2 45 -14.6773 151.100 TC 60 13 92
1985017S15146 1985 11 SP EA ODETTE 1985-01-17 18:00:00 TS -14.7817 151.808 65 985 bom main 483 483 O_____O_P_P_O_ jtwc_sh SH141985 -14.7000 151.800 XX 65 -5 -14.8000 151.800 40 65 985 4.50000 -14.8550 151.706 52 981 -14.8536 151.933 2 56 -14.7000 151.800 TC 65 89 89 13 95
1985017S15146 1985 11 SP EA ODETTE 1985-01-17 21:00:00 TS -14.8621 152.462 main 519 519 P_____P_P_P_P_ SH141985 -14.8199 152.515 XX 70 -5 -14.8547 152.400 40 72 979 -14.9099 152.351 56 978 -14.9060 152.530 2 66 -14.8199 152.515 TC 70 13 100
1985017S15146 1985 11 SP EA ODETTE 1985-01-18 00:00:00 TS -15.0000 153.100 80 974 bom main 557 557 O_____O_O_O_O_ jtwc_sh SH141985 -15.0000 153.200 XX 75 -5 -15.0000 153.000 40 80 974 5.00000 -15.0000 153.000 60 975 -15.0000 153.100 4 77 -15.0000 153.200 TC 75 110 110 13 106
1985017S15146 1985 11 SP EA ODETTE 1985-01-18 03:00:00 TS -15.2139 153.733 main 609 609 P_____P_P_P_P_ SH141985 -15.1998 153.830 XX 77 -5 -15.3501 153.664 40 85 969 -15.1472 153.657 62 972 -15.1726 153.683 4 77 -15.1998 153.830 TC 77 13 110
1985017S15146 1985 11 SP EA ODETTE 1985-01-18 06:00:00 TS -15.4424 154.331 90 965 bom main 664 664 O_____O_P_P_O_ jtwc_sh SH141985 -15.4000 154.400 XX 80 -5 -15.7000 154.300 40 90 965 5.50000 -15.3277 154.309 65 970 -15.3844 154.244 4 77 -15.4000 154.400 TC 80 124 124 12 110
1985017S15146 1985 11 SP EA ODETTE 1985-01-18 09:00:00 TS -15.6180 154.877 main 721 721 P_____P_P_P_P_ SH141985 -15.5648 154.923 XX 82 -5 -15.8372 154.823 40 90 960 -15.5192 154.932 67 967 -15.6040 154.783 4 77 -15.5648 154.923 TC 82 11 107
1985017S15146 1985 11 SP EA ODETTE 1985-01-18 12:00:00 TS -15.7600 155.380 90 955 bom main 773 773 O_____O_O_O_O_ jtwc_sh SH141985 -15.7000 155.400 XX 85 -5 -15.9000 155.300 40 90 955 5.50000 -15.7000 155.500 70 965 -15.8000 155.300 4 77 -15.7000 155.400 TC 85 124 124 10 106
1985017S15146 1985 11 SP EA ODETTE 1985-01-18 15:00:00 TS -15.8847 155.843 main 809 791 P_____P_P_P_P_ SH141985 -15.8148 155.850 XX 87 -5 -15.9999 155.800 40 92 952 -15.8541 155.942 72 962 -15.9400 155.773 4 83 -15.8148 155.850 TC 87 9 105
1985017S15146 1985 11 SP EA ODETTE 1985-01-18 18:00:00 TS -15.9888 156.293 95 949 bom main 791 776 O_____O_P_P_O_ jtwc_sh SH141985 -15.9000 156.300 XX 90 -5 -16.1000 156.300 40 95 949 5.50000 -15.9928 156.335 75 960 -16.0511 156.228 4 89 -15.9000 156.300 TC 90 135 135 9 102
1985017S15146 1985 11 SP EA ODETTE 1985-01-18 21:00:00 TS -16.0753 156.757 main 776 759 P_____P_P_P_P_ SH141985 -15.9574 156.785 XX 92 -5 -16.2148 156.785 40 95 947 -16.1102 156.736 77 957 -16.1368 156.694 4 95 -15.9574 156.785 TC 92 9 99
1985017S15146 1985 11 SP EA ODETTE 1985-01-19 00:00:00 TS -16.1400 157.260 95 945 bom main 755 743 O_____O_O_O_O_ jtwc_sh SH141985 -16.0000 157.300 XX 95 -5 -16.3000 157.300 40 95 945 5.50000 -16.2000 157.200 80 955 -16.2000 157.200 4 102 -16.0000 157.300 TC 95 135 135 10 95
1985017S15146 1985 11 SP EA ODETTE 1985-01-19 03:00:00 TS -16.1680 157.800 main 743 707 P_____P_P_P_P_ SH141985 -16.0422 157.820 XX 97 -5 -16.3224 157.878 40 97 937 -16.2287 157.764 78 956 -16.2044 157.719 4 99 -16.0422 157.820 TC 102 11 92
1985017S15146 1985 11 SP EA ODETTE 1985-01-19 06:00:00 TS -16.1857 158.398 100 930 bom main 707 676 O_____O_P_P_O_ jtwc_sh SH141985 -16.1000 158.400 XX 100 -5 -16.3000 158.500 40 100 930 6.00000 -16.2338 158.402 77 957 -16.1949 158.288 4 96 -16.1000 158.400 TC 110 139 139 12 92
1985017S15146 1985 11 SP EA ODETTE 1985-01-19 09:00:00 TS -16.2102 159.049 main 676 629 P_____P_P_P_P_ SH141985 -16.1923 159.063 XX 100 -5 -16.2051 159.072 40 100 930 -16.2470 159.114 76 958 -16.2131 158.938 4 93 -16.1923 159.063 TC 110 14 94
1985017S15146 1985 11 SP EA ODETTE 1985-01-19 12:00:00 TS -16.2889 159.800 100 930 bom main 629 563 O_____O_O_O_O_ jtwc_sh SH141985 -16.3000 159.800 XX 100 -5 -16.2000 159.800 40 100 930 6.00000 -16.3000 159.900 75 960 -16.3000 159.700 4 90 -16.3000 159.800 TC 110 139 139 16 98
1985017S15146 1985 11 SP MM ODETTE 1985-01-19 15:00:00 TS -16.4342 160.652 main 556 487 P_____O_P_P_P_ SH141985 -16.3998 160.578 XX 95 -5 -16.4000 160.800 40 90 936 5.50000 -16.3872 160.746 72 962 -16.5588 160.671 4 87 -16.3998 160.578 TC 102 124 124 17 100
1985017S15146 1985 11 SP MM ODETTE 1985-01-19 18:00:00 TS -16.5998 161.552 main 481 420 O_______P_P_O_ jtwc_sh SH141985 -16.5000 161.400 XX 90 -5 -16.5224 161.662 70 965 -16.8767 161.745 4 85 -16.5000 161.400 TC 95 18 101
1985017S15146 1985 11 SP MM ODETTE 1985-01-19 21:00:00 TS -16.7754 162.482 main 416 376 P_______P_P_P_ SH141985 -16.5997 162.243 XX 87 -5 -16.7212 162.622 67 967 -17.1808 162.822 4 82 -16.5997 162.243 TC 90 18 101
1985017S15146 1985 11 SP MM ODETTE 1985-01-20 00:00:00 TS -16.9500 163.400 65 970 wellington main 376 318 O_______O_O_O_ jtwc_sh SH141985 -16.7000 163.100 XX 85 -5 -17.0000 163.600 65 970 -17.4000 163.800 4 80 -16.7000 163.100 TC 85 17 100
1985017S15146 1985 11 SP MM ODETTE 1985-01-20 03:00:00 TS -17.0698 164.242 main 318 255 P_______P_P_P_ SH141985 -16.7771 163.943 XX 80 -5 -17.3954 164.595 61 973 -17.3295 164.489 4 73 -16.7771 163.943 TC 80 16 99
1985017S15146 1985 11 SP MM ODETTE 1985-01-20 06:00:00 TS -17.2131 165.068 main 246 188 O_______P_P_O_ jtwc_sh SH141985 -16.9000 164.800 XX 75 -5 -17.8629 165.599 57 977 -17.1893 165.073 4 67 -16.9000 164.800 TC 75 16 102
1985017S15146 1985 11 SP MM ODETTE 1985-01-20 09:00:00 TS -17.4157 165.903 main 188 147 P_______P_P_P_ SH141985 -17.1047 165.693 XX 70 -5 -18.3488 166.579 53 981 -17.1047 165.646 4 61 -17.1047 165.693 TC 70 17 107
1985017S15146 1985 11 SP MM ODETTE 1985-01-20 12:00:00 TS -17.7000 166.750 50 985 wellington main 143 140 O_______O_O_O_ jtwc_sh SH141985 -17.4000 166.600 XX 65 -5 -18.8000 167.500 50 985 -17.2000 166.300 2 55 -17.4000 166.600 TC 65 17 111
1985017S15146 1985 11 SP MM ODETTE 1985-01-20 15:00:00 TS -18.0483 167.610 main 157 157 P_______P_P_P_ SH141985 -17.7397 167.508 XX 60 -5 -19.1488 168.317 47 986 -17.5651 167.109 2 47 -17.7397 167.508 TC 60 19 116
1985017S15146 1985 11 SP MM ODETTE 1985-01-20 18:00:00 TS -18.5263 168.510 main 225 225 O_______P_P_O_ jtwc_sh SH141985 -18.2000 168.400 XX 55 -5 -19.4568 169.070 45 987 -18.1555 168.056 2 40 -18.2000 168.400 TC 55 20 122
1985017S15146 1985 11 SP MM ODETTE 1985-01-20 21:00:00 TS -19.0836 169.391 main 327 327 P_______P_P_P_ SH141985 -18.8046 169.265 XX 52 -5 -19.7366 169.788 42 988 -18.8932 169.101 2 32 -18.8046 169.265 TC 52 20 125
1985017S15146 1985 11 SP MM ODETTE 1985-01-21 00:00:00 TS -19.6692 170.231 40 990 wellington main 429 429 O_______O_O_O_ jtwc_sh SH141985 -19.5000 170.100 XX 50 -5 -20.0000 170.500 40 990 -19.7000 170.200 1 25 -19.5000 170.100 TC 50 19 127
1985017S15146 1985 11 SP MM ODETTE 1985-01-21 03:00:00 TS -20.2587 171.024 main 465 465 P_______P___P_ SH141985 -20.2597 170.922 XX 45 -5 -20.2566 171.229 37 991 1 -20.2597 170.922 TC 45 18 128
1985017S15146 1985 11 SP MM ODETTE 1985-01-21 06:00:00 TS -20.7933 171.775 main 520 520 O_______P___O_ jtwc_sh SH141985 -20.9000 171.700 XX 40 -5 -20.5086 171.975 35 993 1 -20.9000 171.700 TC 40 16 124
1985017S15146 1985 11 SP MM ODETTE 1985-01-21 09:00:00 TS -21.1669 172.485 main 578 566 P_______P___P_ SH141985 -21.2696 172.423 XX 37 -5 -20.7563 172.734 32 995 1 -21.2696 172.423 TC 37 14 113
1985017S15146 1985 11 SP MM ODETTE 1985-01-21 12:00:00 TS -21.3429 173.157 30 997 wellington main 558 527 O_______O___O_ jtwc_sh SH141985 -21.4000 173.100 XX 35 -5 -21.0000 173.500 30 997 -21.4000 173.100 TC 35 12 99
1985017S15146 1985 11 SP MM ODETTE 1985-01-21 15:00:00 TS -21.3480 173.755 main 512 460 P___________P_ SH141985 -21.3480 173.755 XX 30 -5 -21.3480 173.755 TC 30 12 83
1985017S15146 1985 11 SP MM ODETTE 1985-01-21 18:00:00 TS -21.2000 174.400 main 460 O___________O_ jtwc_sh SH141985 -21.2000 174.400 XX 25 -5 -21.2000 174.400 TC 25 12 76

デジタル台風データ・検索

IBTrACS Databaseについて

本データベースは、米国NOAAが公開する1842年以降の世界の熱帯低気圧のベストトラックデータアーカイブInternational Best Track Archive for Climate Stewardship (IBTrACS)を、ウェブで閲覧しやすい形式に変換したものです。

最終更新日:2021-12-08